Time;durP1;ratioP1;P1;durP2;ratioP2;P2;SDS_P1;SDS_P2;PMS_P1;PMS_P2;Temp;Humidity;BMP_temperature;BMP_pressure;BME280_temperature;BME280_humidity;BME280_pressure;Samples;Min_cycle;Max_cycle;Signal;HPM_P1;HPM_P2
2022/07/28 00:00:36;;;;;;;8.82;1.40;;;;;;;13.05;70.91;101744.13;10359451;28;20057;-72
2022/07/28 00:05:37;;;;;;;2.92;1.02;;;;;;;13.00;71.81;101745.63;10394358;28;20132;-73
2022/07/28 00:10:38;;;;;;;5.03;1.35;;;;;;;13.02;70.77;101744.91;10385125;28;20530;-74
2022/07/28 00:15:38;;;;;;;7.63;1.30;;;;;;;12.97;71.14;101740.22;10373109;28;20053;-73
2022/07/28 00:20:39;;;;;;;3.53;1.30;;;;;;;12.78;71.66;101740.16;10353998;28;20049;-77
2022/07/28 00:25:39;;;;;;;3.22;1.25;;;;;;;12.71;72.24;101731.88;10387102;28;20049;-76
2022/07/28 00:30:40;;;;;;;4.80;1.20;;;;;;;12.73;72.16;101719.72;10332819;28;20443;-76
2022/07/28 00:35:40;;;;;;;4.88;2.65;;;;;;;12.67;71.92;101730.81;10362816;28;20037;-77
2022/07/28 00:46:00;;;;;;;3.03;1.00;;;;;;;12.75;70.99;101733.84;10371914;28;20038;-76
2022/07/28 00:51:00;;;;;;;3.97;1.50;;;;;;;12.77;70.89;101729.56;10358541;28;20444;-76
2022/07/28 00:56:01;;;;;;;4.32;1.20;;;;;;;12.78;71.68;101724.41;10398014;28;20080;-75
2022/07/28 01:01:06;;;;;;;3.28;1.40;;;;;;;12.65;71.09;101729.84;10370554;28;20120;-75
2022/07/28 01:06:19;;;;;;;11.15;1.77;;;;;;;12.63;71.58;101713.97;10352554;28;20046;-75
2022/07/28 01:11:33;;;;;;;3.90;1.50;;;;;;;12.57;71.78;101723.28;10332020;28;20457;-75
2022/07/28 01:16:54;;;;;;;5.10;1.35;;;;;;;12.47;72.10;101716.63;10382667;28;20400;-75
2022/07/28 01:21:56;;;;;;;3.55;1.50;;;;;;;12.50;71.84;101727.28;10349948;28;20161;-75
2022/07/28 01:27:03;;;;;;;2.70;1.38;;;;;;;12.40;72.31;101719.72;10345977;28;20034;-74
2022/07/28 01:32:08;;;;;;;4.57;2.58;;;;;;;12.33;72.62;101723.75;10354407;28;20052;-75
2022/07/28 01:37:10;;;;;;;3.03;1.95;;;;;;;12.40;72.87;101719.72;10385350;28;20551;-75
2022/07/28 01:42:11;;;;;;;2.15;1.10;;;;;;;12.40;73.08;101704.91;10345173;28;20046;-75
2022/07/28 01:47:12;;;;;;;6.80;2.38;;;;;;;12.35;73.15;101706.38;10329852;28;20137;-75
2022/07/28 01:52:12;;;;;;;5.38;1.00;;;;;;;12.36;72.84;101710.81;10340171;28;20046;-75
2022/07/28 01:57:13;;;;;;;7.53;1.48;;;;;;;12.27;73.29;101694.56;10328626;28;20114;-75
2022/07/28 02:02:15;;;;;;;12.30;2.47;;;;;;;12.19;73.49;101696.75;10314823;28;20048;-75
2022/07/28 02:07:15;;;;;;;1.90;1.20;;;;;;;12.09;73.94;101683.94;10320559;28;20092;-75
2022/07/28 02:12:16;;;;;;;3.70;1.20;;;;;;;12.01;74.15;101686.16;10320515;28;20372;-75
2022/07/28 02:17:19;;;;;;;3.40;1.85;;;;;;;11.79;74.76;101686.66;10303724;28;20046;-74
2022/07/28 02:22:19;;;;;;;4.38;1.50;;;;;;;11.71;75.77;101679.25;10318693;28;20169;-75
2022/07/28 02:27:24;;;;;;;4.63;2.60;;;;;;;11.60;76.07;101689.16;10302820;28;20172;-74
2022/07/28 02:32:45;;;;;;;6.22;1.80;;;;;;;11.59;76.37;101682.09;10339267;28;20046;-75
2022/07/28 02:37:48;;;;;;;4.22;2.28;;;;;;;11.56;76.76;101660.97;10304252;28;20165;-75
2022/07/28 02:42:49;;;;;;;3.78;1.85;;;;;;;11.30;77.23;101657.75;10322353;28;20095;-75
2022/07/28 02:47:52;;;;;;;4.97;2.08;;;;;;;11.05;78.50;101654.53;10301970;28;20486;-74
2022/07/28 02:52:56;;;;;;;4.05;1.88;;;;;;;11.04;78.85;101661.47;10328195;28;20125;-75
2022/07/28 02:57:57;;;;;;;7.53;1.90;;;;;;;10.93;78.93;101649.47;10350102;28;20411;-74
2022/07/28 03:02:57;;;;;;;2.63;1.40;;;;;;;10.72;80.04;101652.63;10343746;28;20042;-75
2022/07/28 03:07:58;;;;;;;8.38;3.72;;;;;;;10.56;80.97;101653.44;10343265;28;20626;-74
2022/07/28 03:12:59;;;;;;;10.25;2.85;;;;;;;10.35;82.20;101663.44;10357947;28;20121;-74
2022/07/28 03:18:00;;;;;;;10.00;3.53;;;;;;;10.18;83.49;101660.69;10353398;28;20138;-75
2022/07/28 03:23:01;;;;;;;7.05;1.90;;;;;;;10.42;83.02;101665.66;10318629;28;20039;-75
2022/07/28 03:28:01;;;;;;;9.50;2.53;;;;;;;10.38;83.00;101664.56;10302609;28;20048;-74
2022/07/28 03:33:02;;;;;;;7.90;1.95;;;;;;;10.23;83.26;101669.75;10302992;28;20147;-75
2022/07/28 03:38:13;;;;;;;8.55;2.47;;;;;;;10.00;83.62;101678.78;10319351;28;20128;-75
2022/07/28 03:43:15;;;;;;;6.90;2.58;;;;;;;9.66;84.38;101682.75;10328931;28;20505;-75
2022/07/28 03:48:16;;;;;;;4.85;2.13;;;;;;;9.40;85.68;101686.31;10326621;28;20398;-75
2022/07/28 03:53:24;;;;;;;10.48;3.67;;;;;;;9.18;86.99;101687.50;10327571;28;20073;-75
2022/07/28 03:58:25;;;;;;;13.18;4.82;;;;;;;9.10;88.29;101683.47;10334513;28;20048;-74
2022/07/28 04:03:26;;;;;;;5.40;2.23;;;;;;;8.98;89.02;101687.88;10393678;28;20053;-75
2022/07/28 04:08:27;;;;;;;6.03;3.00;;;;;;;8.92;89.45;101677.91;10407089;28;20096;-74
2022/07/28 04:13:27;;;;;;;5.60;2.72;;;;;;;9.00;90.20;101679.31;10406638;28;20034;-74
2022/07/28 04:18:28;;;;;;;5.60;2.78;;;;;;;9.08;90.47;101678.13;10354528;28;20124;-75
2022/07/28 04:23:29;;;;;;;9.32;3.17;;;;;;;9.14;90.41;101681.94;10406568;28;20033;-75
2022/07/28 04:28:30;;;;;;;8.80;3.17;;;;;;;9.18;90.70;101670.91;10381583;28;20046;-75
2022/07/28 04:33:30;;;;;;;5.32;2.80;;;;;;;9.22;90.68;101667.69;10331926;28;20490;-75
2022/07/28 04:38:31;;;;;;;12.98;2.55;;;;;;;9.31;90.90;101673.53;10383498;28;20047;-75
2022/07/28 04:43:31;;;;;;;4.82;3.30;;;;;;;9.45;91.32;101669.22;10389050;28;20478;-75
2022/07/28 04:48:32;;;;;;;5.60;3.03;;;;;;;9.64;91.46;101671.28;10371366;28;20041;-75
2022/07/28 04:53:32;;;;;;;5.10;2.80;;;;;;;9.89;90.72;101667.63;10379919;28;20052;-74
2022/07/28 04:58:33;;;;;;;7.40;3.80;;;;;;;10.18;89.93;101668.56;10361214;28;20473;-76
2022/07/28 05:03:33;;;;;;;6.40;2.50;;;;;;;10.59;86.76;101664.09;10375969;28;20038;-75
2022/07/28 05:08:34;;;;;;;7.60;2.88;;;;;;;10.93;84.20;101665.19;10374541;28;20460;-74
2022/07/28 05:13:34;;;;;;;8.77;3.72;;;;;;;11.08;83.97;101671.31;10329071;28;20077;-74
2022/07/28 05:18:35;;;;;;;7.53;2.78;;;;;;;11.31;82.38;101670.06;10367939;28;20037;-75
2022/07/28 05:23:35;;;;;;;7.30;2.97;;;;;;;11.87;80.10;101664.38;10385184;28;20039;-75
2022/07/28 05:28:36;;;;;;;12.48;6.38;;;;;;;12.40;77.42;101668.16;10382131;28;20030;-75
2022/07/28 05:33:36;;;;;;;8.90;3.83;;;;;;;13.10;75.60;101673.44;10401625;28;20485;-74
2022/07/28 05:38:37;;;;;;;7.05;2.35;;;;;;;13.89;73.33;101662.38;10379750;28;20048;-76
2022/07/28 05:43:38;;;;;;;7.88;4.45;;;;;;;15.36;64.82;101654.69;10348599;28;20145;-75
2022/07/28 05:48:39;;;;;;;7.28;3.03;;;;;;;15.04;65.10;101670.09;10353797;28;20057;-77
2022/07/28 05:53:39;;;;;;;10.85;2.60;;;;;;;14.54;68.30;101665.31;10384351;28;20061;-75
2022/07/28 05:58:40;;;;;;;8.63;2.67;;;;;;;14.50;67.97;101676.53;10377208;28;20052;-74
2022/07/28 06:03:40;;;;;;;7.03;3.13;;;;;;;14.64;67.84;101678.88;10371271;28;20083;-75
2022/07/28 06:08:41;;;;;;;14.45;5.70;;;;;;;14.94;67.39;101678.44;10374086;28;20460;-75
2022/07/28 06:13:44;;;;;;;10.32;4.60;;;;;;;15.63;64.32;101666.28;10351264;28;20094;-75
2022/07/28 06:18:45;;;;;;;7.78;2.88;;;;;;;16.17;62.24;101671.03;10383405;28;20125;-75
2022/07/28 06:23:45;;;;;;;5.27;2.13;;;;;;;16.53;62.91;101664.38;10400822;28;20098;-73
2022/07/28 06:28:46;;;;;;;8.05;2.45;;;;;;;16.85;59.27;101661.97;10401734;28;20305;-73
2022/07/28 06:33:46;;;;;;;6.20;1.95;;;;;;;16.76;60.74;101656.38;10382571;28;20080;-73
2022/07/28 06:38:48;;;;;;;6.85;2.25;;;;;;;17.27;59.87;101647.56;10400387;28;20067;-73
2022/07/28 06:43:51;;;;;;;8.15;2.10;;;;;;;18.39;54.83;101640.31;10400633;28;20093;-73
2022/07/28 06:48:51;;;;;;;9.80;3.05;;;;;;;19.17;52.49;101648.53;10401104;28;20112;-73
2022/07/28 06:53:52;;;;;;;5.18;2.15;;;;;;;20.59;50.33;101652.50;10400233;28;20037;-73
2022/07/28 06:58:52;;;;;;;6.13;2.50;;;;;;;21.94;45.48;101636.94;10399537;28;20037;-73
2022/07/28 07:03:53;;;;;;;12.40;2.63;;;;;;;23.21;42.50;101637.34;10366981;28;20052;-72
2022/07/28 07:08:53;;;;;;;9.77;2.40;;;;;;;23.86;41.80;101643.09;10399071;28;20044;-73
2022/07/28 07:13:54;;;;;;;9.37;2.77;;;;;;;25.37;37.61;101632.66;10400089;28;20068;-73
2022/07/28 07:18:54;;;;;;;8.95;3.15;;;;;;;25.46;38.20;101635.34;10377676;28;20053;-73
2022/07/28 07:23:55;;;;;;;5.90;3.17;;;;;;;25.01;37.12;101635.41;10360288;28;20042;-74
2022/07/28 07:28:56;;;;;;;11.70;4.43;;;;;;;24.70;37.61;101642.47;10382223;28;20448;-74
2022/07/28 07:33:56;;;;;;;6.20;2.90;;;;;;;23.65;42.10;101643.88;10375214;28;20041;-75
2022/07/28 07:38:57;;;;;;;11.43;2.97;;;;;;;24.83;38.68;101635.41;10397197;28;20046;-73
2022/07/28 07:43:57;;;;;;;10.93;3.47;;;;;;;26.03;35.76;101638.75;10340318;28;20038;-74
2022/07/28 07:48:58;;;;;;;7.73;2.60;;;;;;;26.56;34.46;101625.94;10341009;28;20385;-73
2022/07/28 07:53:58;;;;;;;5.57;2.47;;;;;;;26.25;35.51;101620.78;10348920;28;20037;-73
2022/07/28 07:58:59;;;;;;;7.10;2.07;;;;;;;26.50;36.19;101621.53;10373709;28;20067;-74
2022/07/28 08:03:59;;;;;;;4.53;1.70;;;;;;;27.14;34.62;101607.59;10395459;28;20129;-73
2022/07/28 08:09:00;;;;;;;6.85;2.00;;;;;;;26.55;35.40;101607.19;10358774;28;20045;-73
2022/07/28 08:14:00;;;;;;;6.63;1.90;;;;;;;26.74;34.60;101603.44;10341369;28;20160;-73
2022/07/28 08:19:01;;;;;;;11.13;2.50;;;;;;;27.02;33.08;101600.56;10357869;28;20116;-74
2022/07/28 08:24:02;;;;;;;9.17;2.63;;;;;;;27.13;32.97;101596.88;10340271;28;20490;-73
2022/07/28 08:29:03;;;;;;;7.40;2.10;;;;;;;27.39;34.44;101596.59;10358690;28;20120;-73
2022/07/28 08:34:03;;;;;;;9.83;2.30;;;;;;;27.90;32.17;101595.09;10348695;28;20463;-74
2022/07/28 08:39:04;;;;;;;4.87;2.20;;;;;;;28.07;33.13;101589.50;10347648;28;20038;-73
2022/07/28 08:44:04;;;;;;;3.87;1.80;;;;;;;28.37;32.21;101593.56;10364831;28;20508;-74
2022/07/28 08:49:08;;;;;;;9.03;2.43;;;;;;;28.05;31.89;101602.09;10332038;28;20521;-73
2022/07/28 08:54:09;;;;;;;8.98;2.15;;;;;;;28.36;30.78;101596.28;10364903;28;20115;-73
2022/07/28 08:59:09;;;;;;;7.25;1.95;;;;;;;28.30;34.38;101596.38;10339224;28;20122;-74
2022/07/28 09:04:10;;;;;;;6.37;1.73;;;;;;;28.62;31.18;101612.03;10323621;28;20097;-73
2022/07/28 09:09:10;;;;;;;6.43;2.00;;;;;;;27.98;31.32;101596.78;10307734;28;20026;-73
2022/07/28 09:14:11;;;;;;;5.43;1.50;;;;;;;28.11;33.04;101585.88;10322727;28;20044;-73
2022/07/28 09:19:11;;;;;;;7.77;2.30;;;;;;;28.44;30.26;101572.84;10322333;28;20042;-73
2022/07/28 09:24:34;;;;;;;5.70;2.13;;;;;;;28.78;29.78;101563.31;10324252;28;20042;-74
2022/07/28 09:29:35;;;;;;;4.97;2.03;;;;;;;28.79;29.37;101568.69;10322303;28;20034;-73
2022/07/28 09:34:43;;;;;;;6.05;2.38;;;;;;;28.34;29.40;101566.69;10289886;28;20470;-74
2022/07/28 09:39:43;;;;;;;4.68;1.63;;;;;;;28.39;29.15;101558.56;10323601;28;20053;-73
2022/07/28 09:44:44;;;;;;;13.27;2.13;;;;;;;27.52;30.56;101557.06;10306018;28;20406;-73
2022/07/28 09:49:45;;;;;;;7.57;1.77;;;;;;;27.96;32.30;101562.75;10305136;28;20066;-73
2022/07/28 09:55:12;;;;;;;6.63;1.83;;;;;;;28.69;29.07;101546.38;10320690;28;20446;-73
2022/07/28 10:00:29;;;;;;;5.20;1.77;;;;;;;28.76;30.54;101555.25;10338290;28;20517;-75
2022/07/28 10:05:39;;;;;;;6.88;1.63;;;;;;;29.41;26.82;101540.63;10346861;28;20077;-73
2022/07/28 10:10:40;;;;;;;4.50;2.30;;;;;;;28.86;27.28;101529.06;10344799;28;20042;-73
2022/07/28 10:21:00;;;;;;;5.47;1.70;;;;;;;27.31;32.11;101533.97;10347319;28;20474;-74
2022/07/28 10:26:00;;;;;;;5.05;1.88;;;;;;;28.01;30.35;101536.66;10327986;28;20117;-74
2022/07/28 10:31:01;;;;;;;7.93;2.53;;;;;;;28.01;29.96;101527.72;10349665;28;20129;-73
2022/07/28 10:36:01;;;;;;;7.00;2.00;;;;;;;28.38;28.00;101522.66;10365942;28;20045;-73
2022/07/28 10:41:03;;;;;;;5.47;2.00;;;;;;;27.80;28.48;101528.00;10365747;28;20041;-73
2022/07/28 10:46:06;;;;;;;9.43;2.10;;;;;;;28.69;29.02;101513.19;10394968;28;20053;-72
2022/07/28 10:51:07;;;;;;;6.47;2.13;;;;;;;29.26;27.30;101522.03;10367541;28;20390;-73
2022/07/28 10:56:20;;;;;;;8.27;1.63;;;;;;;28.97;27.94;101520.78;10382480;28;20033;-73
2022/07/28 11:01:39;;;;;;;3.50;1.42;;;;;;;29.40;26.56;101521.75;10366177;28;20037;-74
2022/07/28 11:06:44;;;;;;;7.10;2.63;;;;;;;29.02;27.88;101513.50;10368963;28;20560;-73
2022/07/28 11:11:54;;;;;;;4.05;1.90;;;;;;;28.67;30.32;101509.63;10342445;28;20038;-75
2022/07/28 11:17:04;;;;;;;10.85;2.72;;;;;;;27.70;30.30;101507.53;10350692;28;20041;-73
2022/07/28 11:22:13;;;;;;;5.57;2.95;;;;;;;28.88;27.20;101494.03;10392587;28;20398;-73
2022/07/28 11:27:14;;;;;;;6.03;2.30;;;;;;;29.87;26.99;101492.84;10341911;28;20046;-73
2022/07/28 11:32:14;;;;;;;5.00;1.93;;;;;;;30.37;25.63;101486.28;10341652;28;20542;-73
2022/07/28 11:37:15;;;;;;;12.03;3.00;;;;;;;30.22;27.13;101495.66;10342488;28;20069;-74
2022/07/28 11:42:29;;;;;;;5.70;2.07;;;;;;;29.72;26.70;101471.63;10358668;28;20061;-73
2022/07/28 11:47:30;;;;;;;10.50;1.92;;;;;;;29.65;26.83;101473.59;10325292;28;20076;-72
2022/07/28 11:52:31;;;;;;;3.20;1.58;;;;;;;28.28;29.11;101469.91;10326512;28;20037;-73
2022/07/28 11:57:38;;;;;;;6.90;1.80;;;;;;;27.82;29.00;101480.47;10341725;28;20057;-73
2022/07/28 12:02:39;;;;;;;2.75;1.08;;;;;;;27.39;28.36;101471.19;10325413;28;20049;-73
2022/07/28 12:07:42;;;;;;;11.88;1.98;;;;;;;27.61;28.68;101464.63;10348792;28;20030;-73
2022/07/28 12:12:49;;;;;;;7.65;1.70;;;;;;;28.73;28.42;101453.84;10351810;28;20049;-73
2022/07/28 12:17:50;;;;;;;4.05;2.05;;;;;;;29.47;26.85;101457.81;10334857;28;20042;-73
2022/07/28 12:22:54;;;;;;;;;;;;;;;29.67;27.85;101439.38;10366425;28;20116;-73
2022/07/28 12:27:55;;;;;;;7.85;1.63;;;;;;;30.88;26.54;101433.63;10375120;28;20308;-73
2022/07/28 12:32:55;;;;;;;5.97;1.60;;;;;;;29.48;26.75;101433.50;10404633;28;20037;-73
2022/07/28 12:37:56;;;;;;;3.83;1.80;;;;;;;26.74;32.84;101441.47;10347008;28;20052;-74
2022/07/28 12:42:56;;;;;;;7.43;1.80;;;;;;;25.52;33.94;101436.16;10371555;28;20128;-74
2022/07/28 12:48:05;;;;;;;6.80;1.93;;;;;;;25.47;33.16;101425.47;10368552;28;20175;-73
2022/07/28 12:53:07;;;;;;;8.80;2.30;;;;;;;25.73;31.54;101424.41;10385829;28;20053;-73
2022/07/28 12:58:25;;;;;;;7.38;2.63;;;;;;;25.49;33.27;101422.78;10372502;28;20042;-73
2022/07/28 13:03:27;;;;;;;7.38;1.70;;;;;;;25.22;32.89;101425.56;10305526;28;20050;-76
2022/07/28 13:08:37;;;;;;;4.35;2.28;;;;;;;24.97;35.30;101427.47;10305527;28;20050;-76
2022/07/28 13:13:44;;;;;;;5.60;1.80;;;;;;;25.16;35.96;101427.38;10284228;28;20050;-74
2022/07/28 13:18:52;;;;;;;3.95;1.60;;;;;;;25.37;34.09;101421.03;10296753;28;20050;-73
2022/07/28 13:23:52;;;;;;;4.45;1.83;;;;;;;25.34;32.78;101427.31;10282563;28;20050;-73
2022/07/28 13:29:00;;;;;;;5.87;2.10;;;;;;;25.86;33.54;101413.59;10301389;28;20042;-74
2022/07/28 13:34:04;;;;;;;7.32;1.48;;;;;;;26.20;32.44;101421.41;10315012;28;20038;-73
2022/07/28 13:39:05;;;;;;;8.43;2.28;;;;;;;27.68;32.19;101423.31;10289324;28;20050;-73
2022/07/28 13:44:05;;;;;;;4.60;2.47;;;;;;;27.49;29.95;101425.41;10322156;28;20399;-74
2022/07/28 13:49:06;;;;;;;8.03;3.83;;;;;;;27.10;30.03;101421.41;10313663;28;20034;-73
2022/07/28 13:54:06;;;;;;;5.73;1.70;;;;;;;27.22;30.39;101419.47;10304948;28;20050;-74
2022/07/28 13:59:07;;;;;;;4.70;2.00;;;;;;;26.40;30.47;101410.50;10333334;28;20053;-74
2022/07/28 14:04:08;;;;;;;6.83;2.00;;;;;;;25.75;33.00;101411.88;10348012;28;20442;-74
2022/07/28 14:09:09;;;;;;;8.23;2.20;;;;;;;25.46;32.40;101404.06;10370588;28;20265;-74
2022/07/28 14:14:09;;;;;;;15.63;3.43;;;;;;;25.01;35.39;101398.88;10366784;28;20042;-74
2022/07/28 14:19:12;;;;;;;6.70;1.97;;;;;;;25.12;34.46;101409.56;10400717;28;20045;-75
2022/07/28 14:24:13;;;;;;;3.45;1.40;;;;;;;25.10;35.63;101406.00;10378229;28;20488;-73
2022/07/28 14:29:13;;;;;;;3.90;1.77;;;;;;;25.44;34.94;101398.66;10381167;28;20129;-74
2022/07/28 14:34:14;;;;;;;8.57;1.60;;;;;;;27.41;30.95;101396.81;10389310;28;20383;-74
2022/07/28 14:39:14;;;;;;;4.30;1.60;;;;;;;28.23;29.13;101389.28;10367087;28;20045;-74
2022/07/28 14:44:16;;;;;;;3.17;1.90;;;;;;;27.07;32.21;101393.66;10378054;28;20041;-75
2022/07/28 14:49:16;;;;;;;3.92;1.63;;;;;;;26.30;31.83;101387.34;10381083;28;20553;-76
2022/07/28 14:54:17;;;;;;;4.20;1.50;;;;;;;25.84;33.08;101375.19;10398843;28;20041;-75
2022/07/28 14:59:17;;;;;;;4.87;2.27;;;;;;;26.67;32.46;101370.88;10399357;28;20041;-75
2022/07/28 15:04:18;;;;;;;5.20;1.60;;;;;;;27.31;31.43;101376.34;10374055;28;20049;-75
2022/07/28 15:09:19;;;;;;;8.33;2.70;;;;;;;26.81;31.92;101370.69;10394328;28;20037;-76
2022/07/28 15:14:19;;;;;;;5.57;3.03;;;;;;;26.15;31.48;101362.47;10327317;28;20042;-74
2022/07/28 15:19:20;;;;;;;4.97;1.53;;;;;;;25.95;34.65;101359.91;10342005;28;20034;-74
2022/07/28 15:24:21;;;;;;;8.20;2.20;;;;;;;26.05;33.17;101358.94;10352881;28;20052;-74
2022/07/28 15:29:23;;;;;;;11.52;2.78;;;;;;;25.44;33.60;101346.88;10364139;28;20049;-74
2022/07/28 15:34:23;;;;;;;8.75;2.25;;;;;;;25.09;34.60;101354.22;10366419;28;20049;-76
2022/07/28 15:39:24;;;;;;;6.60;1.77;;;;;;;25.24;34.66;101353.25;10371259;28;20091;-74
2022/07/28 15:44:25;;;;;;;8.43;2.20;;;;;;;24.92;34.96;101352.50;10391881;28;20114;-74
2022/07/28 15:49:26;;;;;;;7.82;1.73;;;;;;;24.95;34.74;101354.28;10363455;28;20034;-73
2022/07/28 15:54:26;;;;;;;5.57;1.83;;;;;;;24.74;35.26;101348.13;10375203;28;20085;-74
2022/07/28 15:59:28;;;;;;;6.83;1.60;;;;;;;24.57;35.38;101358.84;10351367;28;20443;-74
2022/07/28 16:04:29;;;;;;;;;;;;;;;24.37;37.50;101353.56;10367920;28;20038;-74
2022/07/28 16:09:29;;;;;;;10.03;2.63;;;;;;;24.30;38.10;101344.63;10361666;28;20289;-74
2022/07/28 16:14:30;;;;;;;12.93;2.40;;;;;;;24.07;37.81;101342.00;10364499;28;20275;-74
2022/07/28 16:19:30;;;;;;;4.43;1.60;;;;;;;23.93;38.82;101344.63;10374941;28;20046;-73
2022/07/28 16:24:31;;;;;;;11.90;3.00;;;;;;;23.88;37.36;101338.41;10344522;28;20197;-74
2022/07/28 16:29:31;;;;;;;5.13;1.60;;;;;;;23.97;38.41;101341.06;10361522;28;20481;-74
2022/07/28 16:34:32;;;;;;;8.23;2.27;;;;;;;23.80;39.07;101345.53;10367347;28;20042;-74
2022/07/28 16:39:33;;;;;;;5.33;2.00;;;;;;;23.66;39.01;101345.53;10348328;28;20069;-74
2022/07/28 16:44:36;;;;;;;6.53;1.43;;;;;;;23.67;41.11;101333.97;10333825;28;20496;-73
2022/07/28 16:49:37;;;;;;;6.88;2.45;;;;;;;23.72;38.49;101335.72;10404546;28;20516;-73
2022/07/28 16:54:37;;;;;;;7.57;2.67;;;;;;;23.79;37.65;101331.28;10386614;28;20044;-73
2022/07/28 16:59:38;;;;;;;5.77;1.90;;;;;;;23.65;40.44;101344.63;10370537;28;20029;-74
2022/07/28 17:04:41;;;;;;;4.33;2.30;;;;;;;23.45;39.49;101342.81;10392702;28;20464;-73
2022/07/28 17:09:43;;;;;;;5.90;2.42;;;;;;;23.38;39.63;101350.84;10383724;28;20033;-74
2022/07/28 17:14:43;;;;;;;3.20;1.70;;;;;;;23.25;38.23;101342.81;10385364;28;20040;-73
2022/07/28 17:19:45;;;;;;;8.20;2.40;;;;;;;23.13;40.45;101335.59;10386915;28;20501;-74
2022/07/28 17:24:47;;;;;;;4.60;1.83;;;;;;;23.05;39.71;101339.16;10440221;28;20045;-74
2022/07/28 17:29:47;;;;;;;5.60;1.30;;;;;;;23.01;39.35;101339.13;10411173;28;20040;-73
2022/07/28 17:34:48;;;;;;;5.07;1.70;;;;;;;22.73;39.75;101336.34;10426991;28;20441;-74
2022/07/28 17:39:48;;;;;;;4.17;1.93;;;;;;;22.50;41.41;101340.69;10419049;28;20043;-74
2022/07/28 17:44:49;;;;;;;3.95;1.67;;;;;;;22.35;42.61;101339.66;10408730;28;20499;-73
2022/07/28 17:49:52;;;;;;;5.43;2.33;;;;;;;22.23;41.38;101336.94;10412863;28;20057;-73
2022/07/28 18:00:15;;;;;;;4.68;2.20;;;;;;;22.11;43.56;101319.06;10421048;28;20067;-73
2022/07/28 18:05:16;;;;;;;7.72;1.80;;;;;;;22.09;41.99;101326.16;10409964;28;20041;-73
2022/07/28 18:10:20;;;;;;;5.88;1.73;;;;;;;22.10;42.16;101328.84;10409757;28;20044;-74
2022/07/28 18:15:22;;;;;;;4.35;1.40;;;;;;;22.13;41.39;101323.53;10414493;28;20095;-73
2022/07/28 18:20:22;;;;;;;4.07;1.42;;;;;;;22.04;42.66;101326.13;10384486;28;20448;-73
2022/07/28 18:25:24;;;;;;;6.00;1.90;;;;;;;21.95;42.36;101323.41;10396571;28;20053;-73
2022/07/28 18:30:25;;;;;;;7.18;1.73;;;;;;;21.63;43.42;101329.34;10400737;28;20045;-74
2022/07/28 18:35:25;;;;;;;7.13;2.05;;;;;;;21.36;44.42;101329.03;10399255;28;20037;-73
2022/07/28 18:40:26;;;;;;;8.13;1.25;;;;;;;21.26;43.89;101330.72;10369940;28;20134;-73
2022/07/28 18:45:26;;;;;;;4.10;1.33;;;;;;;20.96;45.38;101339.25;10354710;28;20054;-74
2022/07/28 18:50:27;;;;;;;9.95;2.28;;;;;;;20.71;44.95;101343.34;10360161;28;20199;-74
2022/07/28 18:55:31;;;;;;;5.85;1.63;;;;;;;20.50;46.27;101348.38;10380951;28;20030;-74
2022/07/28 19:00:32;;;;;;;5.35;1.95;;;;;;;20.44;46.84;101344.75;10403022;28;20045;-74
2022/07/28 19:05:32;;;;;;;5.55;1.50;;;;;;;20.45;46.62;101347.41;10401379;28;20045;-74
2022/07/28 19:10:33;;;;;;;3.00;1.65;;;;;;;20.35;48.55;101356.13;10401827;28;20049;-74
2022/07/28 19:15:33;;;;;;;3.00;1.45;;;;;;;20.07;50.23;101361.00;10420500;28;20037;-74
2022/07/28 19:20:34;;;;;;;5.72;1.83;;;;;;;19.86;50.90;101362.41;10406637;28;20128;-73
2022/07/28 19:25:36;;;;;;;3.63;1.63;;;;;;;19.60;51.10;101372.56;10381696;28;20376;-74
2022/07/28 19:30:36;;;;;;;;;;;;;;;19.51;50.53;101367.97;10395446;28;20038;-74
2022/07/28 19:35:37;;;;;;;3.67;1.85;;;;;;;19.35;51.46;101385.38;10396294;28;19928;-73
2022/07/28 19:40:40;;;;;;;6.57;1.70;;;;;;;19.09;53.39;101383.09;10387662;28;20454;-73
2022/07/28 19:45:40;;;;;;;5.72;1.90;;;;;;;18.89;53.37;101388.84;10363878;28;20452;-73
2022/07/28 19:50:45;;;;;;;6.75;1.60;;;;;;;18.74;53.08;101388.50;10374595;28;20149;-73
2022/07/28 19:55:47;;;;;;;6.35;2.53;;;;;;;18.69;54.13;101398.09;10326332;28;20112;-74
2022/07/28 20:00:48;;;;;;;6.45;1.60;;;;;;;18.48;54.45;101396.75;10368493;28;20030;-73
2022/07/28 20:05:49;;;;;;;4.13;1.40;;;;;;;18.15;55.84;101403.03;10381306;28;20042;-73
2022/07/28 20:10:50;;;;;;;6.88;3.47;;;;;;;17.97;56.83;101408.69;10365080;28;20034;-74
2022/07/28 20:15:51;;;;;;;4.57;2.47;;;;;;;17.81;57.62;101405.66;10324646;28;20084;-74
2022/07/28 20:20:51;;;;;;;4.47;1.77;;;;;;;17.80;57.61;101416.22;10356881;28;20341;-73
2022/07/28 20:25:52;;;;;;;7.28;1.60;;;;;;;17.84;58.76;101420.72;10368706;28;20049;-73
2022/07/28 20:30:52;;;;;;;4.97;2.00;;;;;;;17.90;58.44;101420.91;10387577;28;20042;-73
2022/07/28 20:35:53;;;;;;;4.88;1.42;;;;;;;17.87;60.53;101408.47;10365363;28;20481;-74
2022/07/28 20:40:53;;;;;;;4.43;2.53;;;;;;;17.77;60.16;101417.00;10360950;28;20108;-73
2022/07/28 20:45:54;;;;;;;3.53;1.40;;;;;;;17.78;57.97;101409.97;10347751;28;20501;-74
2022/07/28 20:50:54;;;;;;;4.20;1.42;;;;;;;17.78;58.17;101413.50;10363775;28;20046;-73
2022/07/28 20:55:55;;;;;;;8.07;2.65;;;;;;;17.64;59.43;101415.81;10404642;28;20511;-74
2022/07/28 21:01:00;;;;;;;3.90;1.50;;;;;;;17.65;57.52;101414.03;10347417;28;20184;-73
2022/07/28 21:06:03;;;;;;;7.07;1.83;;;;;;;17.80;58.55;101419.75;10404777;28;20401;-73
2022/07/28 21:11:07;;;;;;;5.72;2.05;;;;;;;17.71;60.39;101417.75;10385272;28;20034;-73
2022/07/28 21:16:07;;;;;;;2.92;1.50;;;;;;;17.66;59.63;101418.47;10404796;28;20128;-73
2022/07/28 21:21:08;;;;;;;4.28;1.50;;;;;;;17.75;57.82;101417.00;10397727;28;20091;-73
2022/07/28 21:26:11;;;;;;;5.97;2.03;;;;;;;17.72;57.06;101416.00;10386150;28;20046;-73
2022/07/28 21:31:12;;;;;;;4.95;1.33;;;;;;;17.70;57.94;101413.31;10386023;28;20081;-73
2022/07/28 21:36:12;;;;;;;3.42;1.42;;;;;;;17.61;57.42;101421.00;10345616;28;20141;-73
2022/07/28 21:41:13;;;;;;;4.45;0.93;;;;;;;17.59;57.98;101413.00;10378259;28;20040;-73
2022/07/28 21:46:13;;;;;;;5.93;1.85;;;;;;;17.62;58.39;101414.88;10403377;28;20405;-73
2022/07/28 21:51:14;;;;;;;5.65;1.83;;;;;;;17.40;60.28;101406.34;10387225;28;20045;-73
2022/07/28 21:56:14;;;;;;;6.20;1.67;;;;;;;17.26;60.56;101415.63;10403579;28;20102;-73
2022/07/28 22:01:15;;;;;;;8.57;2.58;;;;;;;17.12;61.42;101416.13;10344840;28;20483;-73
2022/07/28 22:06:15;;;;;;;5.57;1.73;;;;;;;16.99;63.07;101416.59;10322079;28;20042;-73
2022/07/28 22:11:16;;;;;;;7.47;2.08;;;;;;;16.95;61.91;101414.69;10338893;28;20053;-74
2022/07/28 22:16:16;;;;;;;4.13;2.03;;;;;;;16.83;61.98;101413.47;10361344;28;20049;-73
2022/07/28 22:21:17;;;;;;;5.22;1.70;;;;;;;16.81;61.45;101420.44;10343578;28;20042;-73
2022/07/28 22:26:17;;;;;;;8.55;2.35;;;;;;;16.83;61.28;101420.47;10321985;28;20052;-73
2022/07/28 22:31:18;;;;;;;4.05;1.38;;;;;;;17.01;60.96;101415.78;10338508;28;20045;-73
2022/07/28 22:36:18;;;;;;;4.25;1.50;;;;;;;16.91;61.79;101413.69;10360011;28;20550;-73
2022/07/28 22:41:19;;;;;;;4.07;1.65;;;;;;;16.86;62.38;101408.25;10344540;28;20046;-73
2022/07/28 22:46:19;;;;;;;4.18;1.35;;;;;;;16.79;62.73;101408.00;10319904;28;20562;-73
2022/07/28 22:51:20;;;;;;;2.00;1.40;;;;;;;16.79;63.14;101408.00;10334543;28;20042;-73
2022/07/28 22:56:20;;;;;;;5.18;2.80;;;;;;;16.87;63.60;101412.69;10358982;28;20038;-73
2022/07/28 23:01:21;;;;;;;5.32;2.38;;;;;;;16.76;63.26;101398.25;10369050;28;20069;-73
2022/07/28 23:06:21;;;;;;;3.53;1.45;;;;;;;16.77;62.20;101402.69;10360897;28;20486;-73
2022/07/28 23:11:22;;;;;;;4.90;1.88;;;;;;;16.80;61.98;101399.22;10379669;28;20152;-73
2022/07/28 23:16:23;;;;;;;4.82;1.60;;;;;;;16.99;60.51;101401.63;10382997;28;20033;-73
2022/07/28 23:21:23;;;;;;;4.20;1.83;;;;;;;17.07;60.43;101390.38;10363333;28;20061;-73